createdAt,value
2017-12-03T00:02:27.104Z,98665.89
2017-12-03T00:04:54.551Z,98665.13
2017-12-03T00:07:21.962Z,98661.00
2017-12-03T00:09:49.605Z,98663.84
2017-12-03T00:12:17.030Z,98660.71
2017-12-03T00:14:44.533Z,98666.94
2017-12-03T00:17:11.984Z,98662.78
2017-12-03T00:19:39.418Z,98660.05
2017-12-03T00:22:06.918Z,98663.34
2017-12-03T00:24:34.512Z,98665.85
2017-12-03T00:27:02.037Z,98668.81
2017-12-03T00:29:29.762Z,98673.59
2017-12-03T00:31:57.158Z,98663.77
2017-12-03T00:34:24.714Z,98667.62
2017-12-03T00:36:52.154Z,98679.31
2017-12-03T00:39:19.597Z,98677.03
2017-12-03T00:41:47.126Z,98664.00
2017-12-03T00:44:14.606Z,98670.51
2017-12-03T00:46:41.994Z,98676.01
2017-12-03T00:49:09.534Z,98680.00
2017-12-03T00:51:36.998Z,98673.25
2017-12-03T00:54:04.501Z,98678.52
2017-12-03T00:56:32.489Z,98674.87
2017-12-03T00:59:00.506Z,98670.47
2017-12-03T01:01:27.949Z,98670.98
2017-12-03T01:03:55.358Z,98664.97
2017-12-03T01:06:22.799Z,98671.27
2017-12-03T01:08:50.256Z,98667.37
2017-12-03T01:11:17.782Z,98667.68
2017-12-03T01:13:45.187Z,98674.97
2017-12-03T01:16:12.627Z,98686.73
2017-12-03T01:18:40.089Z,98687.45
2017-12-03T01:21:07.694Z,98686.49
2017-12-03T01:23:35.164Z,98671.91
2017-12-03T01:26:02.636Z,98665.69
2017-12-03T01:28:30.100Z,98673.21
2017-12-03T01:30:57.542Z,98671.39
2017-12-03T01:33:24.944Z,98672.22
2017-12-03T01:35:52.411Z,98676.48
2017-12-03T01:38:19.923Z,98681.19
2017-12-03T01:40:47.434Z,98682.13
2017-12-03T01:43:14.898Z,98673.31
2017-12-03T01:45:42.352Z,98679.95
2017-12-03T01:48:09.755Z,98673.74
2017-12-03T01:50:37.258Z,98670.27
2017-12-03T01:53:04.703Z,98683.88
2017-12-03T01:55:32.447Z,98675.70
2017-12-03T01:58:01.053Z,98674.60
2017-12-03T02:00:28.525Z,98675.97
2017-12-03T02:02:55.922Z,98680.40
2017-12-03T02:05:23.375Z,98669.48
2017-12-03T02:07:50.946Z,98667.48
2017-12-03T02:10:18.351Z,98668.09
2017-12-03T02:12:45.786Z,98664.05
2017-12-03T02:15:13.238Z,98674.13
2017-12-03T02:17:40.703Z,98673.75
2017-12-03T02:20:08.190Z,98672.11
2017-12-03T02:22:35.845Z,98677.50
2017-12-03T02:25:03.396Z,98670.83
2017-12-03T02:27:31.066Z,98673.01
2017-12-03T02:29:58.476Z,98671.86
2017-12-03T02:32:26.039Z,98677.03
2017-12-03T02:34:53.508Z,98666.49
2017-12-03T02:37:21.062Z,98666.73
2017-12-03T02:39:48.492Z,98671.46
2017-12-03T02:42:15.954Z,98682.36
2017-12-03T02:44:43.390Z,98678.09
2017-12-03T02:47:10.864Z,98677.61
2017-12-03T02:49:38.342Z,98680.15
2017-12-03T02:52:05.888Z,98680.57
2017-12-03T02:54:33.454Z,98680.83
2017-12-03T02:57:01.157Z,98676.95
2017-12-03T02:59:28.724Z,98689.51
2017-12-03T03:01:56.154Z,98684.64
2017-12-03T03:04:23.658Z,98684.72
2017-12-03T03:06:51.162Z,98690.39
2017-12-03T03:09:18.670Z,98684.07
2017-12-03T03:11:46.127Z,98681.59
2017-12-03T03:14:13.530Z,98682.97
2017-12-03T03:19:14.922Z,98680.63
2017-12-03T03:21:42.400Z,98692.95
2017-12-03T03:24:09.885Z,98684.02
2017-12-03T03:26:37.389Z,98687.54
2017-12-03T03:29:04.876Z,98681.36
2017-12-03T03:31:32.488Z,98677.19
2017-12-03T03:34:00.069Z,98684.02
2017-12-03T03:36:27.532Z,98689.55
2017-12-03T03:38:54.998Z,98681.33
2017-12-03T03:41:22.468Z,98686.56
2017-12-03T03:43:49.931Z,98685.02
2017-12-03T03:46:17.474Z,98683.95
2017-12-03T03:48:44.903Z,98688.41
2017-12-03T03:51:12.302Z,98691.23
2017-12-03T03:53:39.744Z,98692.51
2017-12-03T03:56:07.187Z,98696.22
2017-12-03T03:58:34.927Z,98686.77
2017-12-03T04:01:03.021Z,98695.95
2017-12-03T04:03:30.887Z,98692.72
2017-12-03T04:05:58.326Z,98687.91
2017-12-03T04:08:25.754Z,98681.41
2017-12-03T04:10:53.162Z,98685.39
2017-12-03T04:13:20.726Z,98687.19
2017-12-03T04:15:48.127Z,98686.84
2017-12-03T04:18:15.671Z,98687.56
2017-12-03T04:20:43.058Z,98688.25
2017-12-03T04:23:10.592Z,98689.03
2017-12-03T04:25:37.994Z,98693.13
2017-12-03T04:28:05.650Z,98691.69
2017-12-03T04:30:33.193Z,98695.47
2017-12-03T04:33:00.770Z,98692.48
2017-12-03T04:35:28.269Z,98683.54
2017-12-03T04:37:55.669Z,98684.95
2017-12-03T04:40:23.185Z,98685.05
2017-12-03T04:42:50.668Z,98683.91
2017-12-03T04:45:18.122Z,98691.48
2017-12-03T04:47:45.526Z,98690.76
2017-12-03T04:50:12.977Z,98691.83
2017-12-03T04:52:40.378Z,98684.73
2017-12-03T04:55:07.822Z,98694.02
2017-12-03T04:57:35.484Z,98693.23
2017-12-03T05:00:02.986Z,98692.03
2017-12-03T05:02:30.478Z,98691.20
2017-12-03T05:04:57.927Z,98686.77
2017-12-03T05:07:25.366Z,98697.05
2017-12-03T05:09:52.940Z,98700.28
2017-12-03T05:12:20.406Z,98696.19
2017-12-03T05:14:47.868Z,98713.14
2017-12-03T05:17:15.342Z,98703.20
2017-12-03T05:19:42.808Z,98701.45
2017-12-03T05:22:10.286Z,98698.42
2017-12-03T05:24:37.720Z,98702.11
2017-12-03T05:27:05.162Z,98707.23
2017-12-03T05:29:32.715Z,98708.59
2017-12-03T05:32:00.234Z,98702.41
2017-12-03T05:34:27.679Z,98701.90
2017-12-03T05:36:55.083Z,98705.78
2017-12-03T05:39:22.546Z,98706.83
2017-12-03T05:41:49.978Z,98699.90
2017-12-03T05:44:17.398Z,98698.18
2017-12-03T05:46:44.832Z,98697.22
2017-12-03T05:49:12.288Z,98692.55
2017-12-03T05:51:39.743Z,98688.91
2017-12-03T05:54:07.189Z,98689.91
2017-12-03T05:56:34.718Z,98688.45
2017-12-03T05:59:02.339Z,98690.89
2017-12-03T06:01:29.890Z,98693.44
2017-12-03T06:03:57.289Z,98697.66
2017-12-03T06:06:24.746Z,98701.86
2017-12-03T06:08:52.187Z,98696.91
2017-12-03T06:11:19.690Z,98704.47
2017-12-03T06:13:47.089Z,98697.91
2017-12-03T06:16:14.585Z,98700.14
2017-12-03T06:18:41.995Z,98705.47
2017-12-03T06:21:09.583Z,98707.57
2017-12-03T06:23:37.069Z,98706.09
2017-12-03T06:26:04.600Z,98709.56
2017-12-03T06:28:32.089Z,98723.95
2017-12-03T06:30:59.566Z,98727.55
2017-12-03T06:33:27.050Z,98726.04
2017-12-03T06:35:54.594Z,98730.88
2017-12-03T06:38:22.002Z,98735.80
2017-12-03T06:40:49.519Z,98732.91
2017-12-03T06:43:16.925Z,98731.53
2017-12-03T06:45:44.466Z,98732.42
2017-12-03T06:48:11.871Z,98729.98
2017-12-03T06:50:39.311Z,98729.12
2017-12-03T06:53:06.972Z,98725.53
2017-12-03T06:55:34.451Z,98717.94
2017-12-03T06:58:01.951Z,98712.51
2017-12-03T07:00:29.404Z,98717.12
2017-12-03T07:02:56.862Z,98729.73
2017-12-03T07:05:24.341Z,98742.74
2017-12-03T07:07:51.890Z,98751.91
2017-12-03T07:10:19.402Z,98759.33
2017-12-03T07:12:46.951Z,98752.34
2017-12-03T07:15:14.491Z,98755.88
2017-12-03T07:17:41.962Z,98752.82
2017-12-03T07:20:09.476Z,98749.01
2017-12-03T07:22:37.035Z,98750.39
2017-12-03T07:25:04.535Z,98753.72
2017-12-03T07:27:32.016Z,98756.78
2017-12-03T07:29:59.420Z,98771.26
2017-12-03T07:32:26.874Z,98764.17
2017-12-03T07:34:54.291Z,98768.55
2017-12-03T07:37:21.749Z,98769.62
2017-12-03T07:39:49.262Z,98763.88
2017-12-03T07:42:16.703Z,98763.22
2017-12-03T07:44:44.107Z,98752.67
2017-12-03T07:47:11.558Z,98746.42
2017-12-03T07:49:38.996Z,98744.00
2017-12-03T07:52:06.487Z,98764.50
2017-12-03T07:54:33.899Z,98762.62
2017-12-03T07:57:01.382Z,98765.38
2017-12-03T07:59:28.878Z,98774.83
2017-12-03T08:01:56.312Z,98777.42
2017-12-03T08:04:23.705Z,98782.58
2017-12-03T08:06:51.140Z,98792.98
2017-12-03T08:09:18.607Z,98779.83
2017-12-03T08:11:46.129Z,98795.66
2017-12-03T08:14:13.590Z,98793.10
2017-12-03T08:16:41.403Z,98785.89
2017-12-03T08:19:08.834Z,98783.53
2017-12-03T08:21:36.270Z,98788.80
2017-12-03T08:24:03.795Z,98778.75
2017-12-03T08:26:31.452Z,98773.70
2017-12-03T08:28:58.939Z,98767.98
2017-12-03T08:31:26.397Z,98776.11
2017-12-03T08:33:53.861Z,98795.05
2017-12-03T08:36:21.361Z,98800.64
2017-12-03T08:38:48.854Z,98801.20
2017-12-03T08:41:16.285Z,98798.97
2017-12-03T08:43:43.720Z,98794.48
2017-12-03T08:46:11.221Z,98790.19
2017-12-03T08:48:38.698Z,98783.13
2017-12-03T08:51:06.622Z,98786.47
2017-12-03T08:53:34.195Z,98796.64
2017-12-03T08:56:01.939Z,98786.31
2017-12-03T08:58:29.386Z,98788.70
2017-12-03T09:00:56.812Z,98800.35
2017-12-03T09:03:24.668Z,98802.14
2017-12-03T09:05:52.394Z,98803.63
2017-12-03T09:08:20.439Z,98799.52
2017-12-03T09:10:48.661Z,98808.06
2017-12-03T09:13:17.633Z,98806.89
2017-12-03T09:15:45.936Z,98803.05
2017-12-03T09:18:14.361Z,98802.44
2017-12-03T09:20:43.051Z,98798.89
2017-12-03T09:23:11.942Z,98808.27
2017-12-03T09:25:41.969Z,98802.20
2017-12-03T09:28:11.252Z,98806.89
2017-12-03T09:30:40.430Z,98807.55
2017-12-03T09:33:09.790Z,98814.06
2017-12-03T09:35:40.540Z,98823.59
2017-12-03T09:38:09.899Z,98823.82
2017-12-03T09:40:39.526Z,98824.33
2017-12-03T09:43:09.260Z,98828.14
2017-12-03T09:45:38.612Z,98820.50
2017-12-03T09:48:06.048Z,98826.54
2017-12-03T09:50:33.519Z,98820.95
2017-12-03T09:53:00.989Z,98816.16
2017-12-03T09:55:28.454Z,98824.96
2017-12-03T09:57:55.861Z,98821.38
2017-12-03T10:00:23.316Z,98829.92
2017-12-03T10:02:50.718Z,98820.66
2017-12-03T10:05:19.307Z,98821.48
2017-12-03T10:07:48.365Z,98812.27
2017-12-03T10:10:17.291Z,98820.97
2017-12-03T10:12:46.635Z,98810.16
2017-12-03T10:15:15.819Z,98810.71
2017-12-03T10:17:44.341Z,98809.48
2017-12-03T10:20:13.949Z,98806.88
2017-12-03T10:22:42.726Z,98806.88
2017-12-03T10:25:12.051Z,98801.88
2017-12-03T10:27:41.584Z,98797.13
2017-12-03T10:30:10.946Z,98802.55
2017-12-03T10:32:39.641Z,98788.69
2017-12-03T10:35:10.018Z,98781.17
2017-12-03T10:40:42.336Z,98784.71
2017-12-03T10:43:11.419Z,98782.02
2017-12-03T10:45:41.337Z,98775.58
2017-12-03T10:48:10.456Z,98772.02
2017-12-03T10:50:41.041Z,98774.03
2017-12-03T10:53:11.011Z,98765.00
2017-12-03T10:55:41.294Z,98759.71
2017-12-03T10:58:10.565Z,98765.84
2017-12-03T11:00:41.376Z,98765.42
2017-12-03T11:03:13.574Z,98756.21
2017-12-03T11:05:43.542Z,98760.91
2017-12-03T11:08:13.212Z,98762.98
2017-12-03T11:10:44.487Z,98755.45
2017-12-03T11:13:14.161Z,98759.70
2017-12-03T11:15:45.252Z,98754.04
2017-12-03T11:18:15.833Z,98760.41
2017-12-03T11:20:45.644Z,98753.97
2017-12-03T11:23:15.564Z,98751.27
2017-12-03T11:25:45.409Z,98747.23
2017-12-03T11:28:15.231Z,98741.38
2017-12-03T11:30:45.332Z,98748.08
2017-12-03T11:33:15.102Z,98727.72
2017-12-03T11:35:46.212Z,98740.20
2017-12-03T11:38:18.672Z,98732.27
2017-12-03T11:40:48.674Z,98736.61
2017-12-03T11:43:19.819Z,98742.03
2017-12-03T11:45:53.280Z,98734.97
2017-12-03T11:48:29.765Z,98733.00
2017-12-03T11:51:01.063Z,98733.06
2017-12-03T11:53:32.269Z,98726.98
2017-12-03T11:55:59.745Z,98724.91
2017-12-03T11:58:27.201Z,98722.06
2017-12-03T12:00:54.602Z,98724.88
2017-12-03T12:03:22.087Z,98722.75
2017-12-03T12:05:49.504Z,98722.74
2017-12-03T12:08:16.976Z,98736.25
2017-12-03T12:10:44.439Z,98716.86
2017-12-03T12:13:11.920Z,98709.91
2017-12-03T12:15:39.363Z,98722.60
2017-12-03T12:18:06.816Z,98716.13
2017-12-03T12:20:34.371Z,98717.29
2017-12-03T12:23:01.869Z,98715.81
2017-12-03T12:25:29.304Z,98717.95
2017-12-03T12:27:56.778Z,98719.17
2017-12-03T12:30:24.232Z,98717.23
2017-12-03T12:32:51.714Z,98717.39
2017-12-03T12:35:19.166Z,98714.36
2017-12-03T12:37:46.697Z,98713.36
2017-12-03T12:40:14.093Z,98706.80
2017-12-03T12:42:41.546Z,98708.99
2017-12-03T12:45:08.948Z,98701.26
2017-12-03T12:47:36.416Z,98694.48
2017-12-03T12:50:03.846Z,98695.97
2017-12-03T12:52:31.511Z,98701.80
2017-12-03T12:54:58.950Z,98698.53
2017-12-03T12:57:26.385Z,98684.23
2017-12-03T12:59:53.832Z,98687.80
2017-12-03T13:02:21.318Z,98682.53
2017-12-03T13:04:48.719Z,98688.94
2017-12-03T13:07:16.146Z,98690.66
2017-12-03T13:09:43.622Z,98681.80
2017-12-03T13:12:11.018Z,98679.55
2017-12-03T13:14:38.482Z,98687.44
2017-12-03T13:17:05.894Z,98692.98
2017-12-03T13:19:33.409Z,98686.31
2017-12-03T13:22:00.993Z,98685.11
2017-12-03T13:24:28.536Z,98683.92
2017-12-03T13:26:55.934Z,98682.47
2017-12-03T13:29:23.472Z,98685.98
2017-12-03T13:31:50.954Z,98686.87
2017-12-03T13:34:18.398Z,98690.03
2017-12-03T13:36:45.873Z,98685.89
2017-12-03T13:39:13.316Z,98684.25
2017-12-03T13:41:40.824Z,98682.48
2017-12-03T13:44:08.323Z,98685.84
2017-12-03T13:46:35.745Z,98680.25
2017-12-03T13:49:03.223Z,98691.53
2017-12-03T13:51:30.718Z,98691.86
2017-12-03T13:53:58.200Z,98693.36
2017-12-03T13:56:25.616Z,98694.00
2017-12-03T13:58:53.078Z,98691.77
2017-12-03T14:01:20.531Z,98697.22
2017-12-03T14:03:48.004Z,98693.37
2017-12-03T14:06:15.415Z,98692.91
2017-12-03T14:08:42.874Z,98692.35
2017-12-03T14:11:10.354Z,98691.22
2017-12-03T14:13:37.826Z,98685.35
2017-12-03T14:16:05.262Z,98678.04
2017-12-03T14:18:32.798Z,98688.98
2017-12-03T14:21:00.250Z,98676.03
2017-12-03T14:23:27.659Z,98684.48
2017-12-03T14:25:55.283Z,98675.45
2017-12-03T14:28:22.699Z,98682.71
2017-12-03T14:30:50.203Z,98686.73
2017-12-03T14:33:17.618Z,98682.62
2017-12-03T14:35:45.366Z,98679.94
2017-12-03T14:38:12.775Z,98686.97
2017-12-03T14:40:40.289Z,98679.08
2017-12-03T14:43:07.722Z,98674.81
2017-12-03T14:45:35.161Z,98681.48
2017-12-03T14:48:02.621Z,98681.63
2017-12-03T14:50:30.148Z,98678.33
2017-12-03T14:52:57.544Z,98683.45
2017-12-03T14:55:24.987Z,98684.38
2017-12-03T14:57:52.502Z,98692.57
2017-12-03T15:00:19.991Z,98685.79
2017-12-03T15:02:47.439Z,98686.45
2017-12-03T15:05:14.889Z,98687.46
2017-12-03T15:07:42.445Z,98690.98
2017-12-03T15:10:09.930Z,98687.75
2017-12-03T15:12:37.430Z,98691.96
2017-12-03T15:15:04.946Z,98686.22
2017-12-03T15:17:32.397Z,98684.89
2017-12-03T15:19:59.884Z,98686.40
2017-12-03T15:22:27.306Z,98689.70
2017-12-03T15:24:54.768Z,98694.02
2017-12-03T15:27:22.238Z,98697.23
2017-12-03T15:29:49.688Z,98704.25
2017-12-03T15:32:17.170Z,98695.47
2017-12-03T15:34:44.657Z,98693.55
2017-12-03T15:37:12.115Z,98696.39
2017-12-03T15:39:39.566Z,98693.31
2017-12-03T15:42:07.024Z,98693.35
2017-12-03T15:44:34.462Z,98700.06
2017-12-03T15:47:02.019Z,98698.27
2017-12-03T15:49:29.450Z,98698.33
2017-12-03T15:51:56.913Z,98705.30
2017-12-03T15:54:24.348Z,98708.33
2017-12-03T15:56:51.803Z,98708.59
2017-12-03T15:59:19.263Z,98714.58
2017-12-03T16:01:46.716Z,98709.03
2017-12-03T16:04:14.127Z,98706.14
2017-12-03T16:06:41.665Z,98703.78
2017-12-03T16:09:09.135Z,98714.26
2017-12-03T16:11:36.616Z,98720.77
2017-12-03T16:14:04.042Z,98724.00
2017-12-03T16:16:31.682Z,98714.66
2017-12-03T16:18:59.120Z,98728.05
2017-12-03T16:21:26.592Z,98730.23
2017-12-03T16:23:54.052Z,98729.20
2017-12-03T16:26:21.539Z,98726.14
2017-12-03T16:28:49.036Z,98726.94
2017-12-03T16:31:16.570Z,98734.67
2017-12-03T16:33:43.978Z,98731.67
2017-12-03T16:36:11.440Z,98732.02
2017-12-03T16:38:38.845Z,98729.27
2017-12-03T16:41:06.329Z,98728.75
2017-12-03T16:43:33.757Z,98728.41
2017-12-03T16:46:01.393Z,98723.82
2017-12-03T16:48:28.858Z,98718.55
2017-12-03T16:50:56.276Z,98712.85
2017-12-03T16:53:23.800Z,98707.25
2017-12-03T16:55:51.294Z,98710.64
2017-12-03T16:58:18.882Z,98717.34
2017-12-03T17:00:46.323Z,98720.41
2017-12-03T17:03:13.790Z,98728.95
2017-12-03T17:05:41.191Z,98728.70
2017-12-03T17:08:08.724Z,98741.80
2017-12-03T17:10:36.164Z,98734.78
2017-12-03T17:13:03.671Z,98735.87
2017-12-03T17:15:31.124Z,98729.97
2017-12-03T17:17:58.582Z,98732.97
2017-12-03T17:20:25.999Z,98730.94
2017-12-03T17:22:53.459Z,98721.92
2017-12-03T17:25:20.933Z,98730.59
2017-12-03T17:27:48.400Z,98723.05
2017-12-03T17:30:15.950Z,98720.48
2017-12-03T17:32:43.405Z,98724.45
2017-12-03T17:35:10.825Z,98718.46
2017-12-03T17:37:38.268Z,98728.02
2017-12-03T17:40:05.733Z,98733.06
2017-12-03T17:42:33.350Z,98732.71
2017-12-03T17:45:00.943Z,98724.67
2017-12-03T17:47:28.419Z,98731.59
2017-12-03T17:49:55.921Z,98732.84
2017-12-03T17:52:23.370Z,98730.95
2017-12-03T17:54:50.829Z,98723.88
2017-12-03T17:57:18.293Z,98730.11
2017-12-03T17:59:45.698Z,98719.27
2017-12-03T18:02:13.106Z,98729.25
2017-12-03T18:04:41.567Z,98728.23
2017-12-03T18:07:08.974Z,98730.14
2017-12-03T18:09:36.565Z,98722.45
2017-12-03T18:12:04.142Z,98713.62
2017-12-03T18:14:31.678Z,98725.88
2017-12-03T18:16:59.107Z,98724.20
2017-12-03T18:19:26.619Z,98713.69
2017-12-03T18:21:54.058Z,98717.12
2017-12-03T18:24:21.537Z,98712.11
2017-12-03T18:26:48.954Z,98720.88
2017-12-03T18:29:16.461Z,98718.48
2017-12-03T18:31:43.865Z,98720.03
2017-12-03T18:34:11.317Z,98712.42
2017-12-03T18:36:38.734Z,98713.91
2017-12-03T18:39:06.232Z,98715.72
2017-12-03T18:41:33.696Z,98721.89
2017-12-03T18:44:01.428Z,98718.06
2017-12-03T18:46:28.858Z,98717.27
2017-12-03T18:48:56.314Z,98722.95
2017-12-03T18:51:23.712Z,98719.13
2017-12-03T18:53:51.171Z,98724.86
2017-12-03T18:56:18.612Z,98732.32
2017-12-03T18:58:46.214Z,98728.29
2017-12-03T19:01:13.618Z,98723.06
2017-12-03T19:03:41.063Z,98726.84
2017-12-03T19:06:08.470Z,98718.65
2017-12-03T19:08:35.937Z,98723.98
2017-12-03T19:11:03.354Z,98735.33
2017-12-03T19:13:30.819Z,98728.97
2017-12-03T19:15:58.266Z,98732.00
2017-12-03T19:18:25.672Z,98733.67
2017-12-03T19:20:53.110Z,98725.39
2017-12-03T19:23:20.566Z,98726.84
2017-12-03T19:25:48.014Z,98728.44
2017-12-03T19:28:15.448Z,98732.20
2017-12-03T19:30:42.901Z,98733.50
2017-12-03T19:33:10.344Z,98728.66
2017-12-03T19:35:37.824Z,98742.36
2017-12-03T19:38:05.281Z,98742.15
2017-12-03T19:40:32.930Z,98737.64
2017-12-03T19:43:00.543Z,98734.95
2017-12-03T19:45:28.012Z,98736.95
2017-12-03T19:47:55.507Z,98744.67
2017-12-03T19:50:23.033Z,98725.16
2017-12-03T19:52:50.548Z,98735.25
2017-12-03T19:55:18.022Z,98737.33
2017-12-03T19:57:45.524Z,98735.98
2017-12-03T20:00:13.009Z,98727.95
2017-12-03T20:02:40.406Z,98725.76
2017-12-03T20:05:07.908Z,98724.09
2017-12-03T20:07:35.484Z,98728.08
2017-12-03T20:10:03.013Z,98720.53
2017-12-03T20:12:30.536Z,98715.78
2017-12-03T20:14:58.072Z,98724.94
2017-12-03T20:17:25.517Z,98724.77
2017-12-03T20:19:52.932Z,98730.44
2017-12-03T20:22:20.469Z,98728.52
2017-12-03T20:24:47.966Z,98735.33
2017-12-03T20:27:15.484Z,98736.71
2017-12-03T20:29:42.874Z,98734.09
2017-12-03T20:32:10.352Z,98736.52
2017-12-03T20:34:37.899Z,98742.64
2017-12-03T20:37:05.381Z,98746.02
2017-12-03T20:39:32.828Z,98751.46
2017-12-03T20:42:00.337Z,98754.09
2017-12-03T20:44:27.823Z,98755.61
2017-12-03T20:46:55.257Z,98748.39
2017-12-03T20:49:22.791Z,98749.06
2017-12-03T20:51:50.364Z,98747.49
2017-12-03T20:54:17.823Z,98748.77
2017-12-03T20:56:45.286Z,98757.80
2017-12-03T20:59:13.303Z,98765.03
2017-12-03T21:01:40.842Z,98760.70
2017-12-03T21:04:08.255Z,98762.94
2017-12-03T21:06:35.898Z,98772.51
2017-12-03T21:09:03.346Z,98763.97
2017-12-03T21:11:30.986Z,98769.41
2017-12-03T21:13:58.410Z,98769.67
2017-12-03T21:16:25.968Z,98773.73
2017-12-03T21:18:53.385Z,98768.46
2017-12-03T21:21:20.845Z,98771.08
2017-12-03T21:23:48.278Z,98766.94
2017-12-03T21:26:15.792Z,98773.81
2017-12-03T21:28:43.204Z,98768.56
2017-12-03T21:31:10.690Z,98776.41
2017-12-03T21:33:38.155Z,98765.92
2017-12-03T21:36:05.623Z,98783.72
2017-12-03T21:38:33.158Z,98786.50
2017-12-03T21:41:00.616Z,98786.77
2017-12-03T21:43:28.070Z,98805.13
2017-12-03T21:45:55.506Z,98808.29
2017-12-03T21:48:23.073Z,98809.63
2017-12-03T21:50:50.530Z,98806.86
2017-12-03T21:53:18.033Z,98811.66
2017-12-03T21:55:45.486Z,98802.84
2017-12-03T21:58:12.931Z,98811.14
2017-12-03T22:00:40.353Z,98814.77
2017-12-03T22:03:07.925Z,98813.52
2017-12-03T22:05:35.384Z,98806.80
2017-12-03T22:08:02.859Z,98813.16
2017-12-03T22:10:30.349Z,98816.84
2017-12-03T22:12:59.132Z,98796.34
2017-12-03T22:15:26.669Z,98815.25
2017-12-03T22:17:59.436Z,98828.05
2017-12-03T22:20:31.921Z,98818.70
2017-12-03T22:23:04.698Z,98813.80
2017-12-03T22:25:36.733Z,98807.06
2017-12-03T22:28:09.151Z,98801.08
2017-12-03T22:30:41.445Z,98805.32
2017-12-03T22:33:13.598Z,98808.17
2017-12-03T22:35:45.996Z,98807.69
2017-12-03T22:38:18.478Z,98808.83
2017-12-03T22:40:51.156Z,98799.78
2017-12-03T22:43:18.592Z,98797.90
2017-12-03T22:45:46.018Z,98810.84
2017-12-03T22:48:13.572Z,98820.17
2017-12-03T22:50:40.987Z,98816.20
2017-12-03T22:53:08.438Z,98813.31
2017-12-03T22:55:35.850Z,98816.12
2017-12-03T22:58:03.369Z,98813.61
2017-12-03T23:00:37.601Z,98814.42
2017-12-03T23:03:05.064Z,98810.12
2017-12-03T23:05:32.478Z,98808.88
2017-12-03T23:08:00.102Z,98801.95
2017-12-03T23:10:27.645Z,98808.83
2017-12-03T23:12:55.185Z,98798.99
2017-12-03T23:15:22.646Z,98794.46
2017-12-03T23:17:50.063Z,98788.84
2017-12-03T23:20:17.506Z,98789.20
2017-12-03T23:22:44.944Z,98792.30
2017-12-03T23:25:12.394Z,98797.42
2017-12-03T23:27:39.809Z,98797.98
2017-12-03T23:30:07.262Z,98792.41
2017-12-03T23:32:34.671Z,98791.55
2017-12-03T23:35:02.188Z,98800.38
2017-12-03T23:37:29.669Z,98795.09
2017-12-03T23:39:58.024Z,98797.30
2017-12-03T23:42:25.620Z,98803.81
2017-12-03T23:44:53.194Z,98806.05
2017-12-03T23:47:20.611Z,98807.41
2017-12-03T23:49:48.059Z,98804.04
2017-12-03T23:52:15.622Z,98808.28
2017-12-03T23:54:43.171Z,98806.22
2017-12-03T23:57:10.563Z,98824.84
2017-12-03T23:59:38.102Z,98815.09
